createdAt,value
2023-01-07T00:01:11.926Z,75.57
2023-01-07T00:03:39.921Z,75.69
2023-01-07T00:06:12.800Z,75.81
2023-01-07T00:08:41.848Z,75.83
2023-01-07T00:11:15.390Z,75.62
2023-01-07T00:13:43.565Z,75.71
2023-01-07T00:16:13.124Z,75.67
2023-01-07T00:18:41.065Z,75.60
2023-01-07T00:21:10.411Z,75.66
2023-01-07T00:23:38.905Z,75.72
2023-01-07T00:26:08.914Z,75.31
2023-01-07T00:28:38.047Z,75.51
2023-01-07T00:31:07.347Z,75.37
2023-01-07T00:33:46.892Z,75.70
2023-01-07T00:36:13.951Z,75.70
2023-01-07T00:38:41.017Z,75.85
2023-01-07T00:41:09.610Z,75.69
2023-01-07T00:43:36.810Z,75.67
2023-01-07T00:46:04.189Z,76.06
2023-01-07T00:48:31.352Z,75.48
2023-01-07T00:50:58.442Z,75.59
2023-01-07T00:53:25.522Z,75.65
2023-01-07T00:55:52.617Z,75.55
2023-01-07T00:58:24.588Z,75.49
2023-01-07T01:00:59.502Z,75.31
2023-01-07T01:03:27.845Z,75.47
2023-01-07T01:05:55.557Z,75.56
2023-01-07T01:08:23.771Z,75.26
2023-01-07T01:10:51.063Z,75.00
2023-01-07T01:13:18.498Z,75.06
2023-01-07T01:15:47.650Z,74.98
2023-01-07T01:18:15.889Z,75.11
2023-01-07T01:20:43.252Z,74.96
2023-01-07T01:23:10.312Z,75.08
2023-01-07T01:25:37.435Z,75.27
2023-01-07T01:28:04.888Z,75.21
2023-01-07T01:30:31.934Z,75.23
2023-01-07T01:32:59.248Z,74.95
2023-01-07T01:35:26.626Z,74.93
2023-01-07T01:37:53.751Z,75.19
2023-01-07T01:40:20.953Z,75.04
2023-01-07T01:42:48.246Z,75.29
2023-01-07T01:45:15.645Z,75.03
2023-01-07T01:47:43.089Z,74.92
2023-01-07T01:50:34.893Z,75.05
2023-01-07T01:53:11.379Z,75.53
2023-01-07T01:55:55.140Z,75.66
2023-01-07T01:58:45.895Z,75.55
2023-01-07T02:01:13.359Z,75.66
2023-01-07T02:03:40.631Z,75.66
2023-01-07T02:06:22.007Z,76.03
2023-01-07T02:08:49.095Z,75.99
2023-01-07T02:11:48.428Z,76.16
2023-01-07T02:14:33.035Z,76.04
2023-01-07T02:17:06.565Z,76.25
2023-01-07T02:19:42.525Z,76.04
2023-01-07T02:22:59.332Z,76.06
2023-01-07T02:26:06.844Z,75.72
2023-01-07T02:29:09.620Z,76.16
2023-01-07T02:32:18.133Z,76.16
2023-01-07T02:35:07.648Z,76.56
2023-01-07T02:37:45.004Z,76.22
2023-01-07T02:40:22.554Z,76.63
2023-01-07T02:43:01.833Z,76.10
2023-01-07T02:45:36.146Z,76.71
2023-01-07T02:48:12.583Z,76.61
2023-01-07T02:50:39.719Z,76.76
2023-01-07T02:53:08.461Z,77.02
2023-01-07T02:55:54.237Z,77.03
2023-01-07T02:58:45.431Z,77.44
2023-01-07T03:01:34.586Z,77.46
2023-01-07T03:04:32.915Z,77.46
2023-01-07T03:07:08.465Z,77.58
2023-01-07T03:09:44.246Z,77.52
2023-01-07T03:12:33.992Z,78.02
2023-01-07T03:15:11.803Z,77.43
2023-01-07T03:17:47.976Z,77.78
2023-01-07T03:20:16.211Z,77.25
2023-01-07T03:22:44.594Z,77.70
2023-01-07T03:25:13.639Z,77.70
2023-01-07T03:27:43.069Z,77.28
2023-01-07T03:30:12.829Z,77.63
2023-01-07T03:32:46.009Z,77.40
2023-01-07T03:35:13.536Z,77.45
2023-01-07T03:37:41.829Z,77.17
2023-01-07T03:40:11.000Z,77.60
2023-01-07T03:42:40.487Z,77.29
2023-01-07T03:45:10.768Z,77.83
2023-01-07T03:47:39.071Z,77.47
2023-01-07T03:50:06.402Z,77.88
2023-01-07T03:52:33.477Z,77.39
2023-01-07T03:55:00.653Z,77.30
2023-01-07T03:57:29.201Z,77.07
2023-01-07T03:59:56.257Z,76.98
2023-01-07T04:02:23.507Z,77.53
2023-01-07T04:04:50.699Z,77.04
2023-01-07T04:07:17.899Z,77.22
2023-01-07T04:09:47.215Z,77.28
2023-01-07T04:12:14.285Z,77.63
2023-01-07T04:14:41.415Z,77.28
2023-01-07T04:17:08.510Z,77.80
2023-01-07T04:19:38.519Z,77.61
2023-01-07T04:22:07.143Z,77.58
2023-01-07T04:24:34.195Z,77.22
2023-01-07T04:27:01.381Z,77.33
2023-01-07T04:29:28.585Z,77.44
2023-01-07T04:31:55.689Z,77.39
2023-01-07T04:34:22.724Z,78.32
2023-01-07T04:36:49.765Z,78.03
2023-01-07T04:39:18.128Z,77.69
2023-01-07T04:41:45.162Z,78.32
2023-01-07T04:44:12.245Z,78.17
2023-01-07T04:46:39.459Z,78.32
2023-01-07T04:49:06.676Z,78.81
2023-01-07T04:51:33.723Z,78.34
2023-01-07T04:54:00.773Z,78.73
2023-01-07T04:56:27.811Z,78.94
2023-01-07T04:58:54.912Z,78.40
2023-01-07T05:01:22.100Z,78.64
2023-01-07T05:03:49.259Z,78.04
2023-01-07T05:06:16.396Z,78.22
2023-01-07T05:08:43.471Z,77.97
2023-01-07T05:11:10.519Z,77.99
2023-01-07T05:13:37.671Z,78.35
2023-01-07T05:16:04.983Z,78.34
2023-01-07T05:18:32.604Z,77.80
2023-01-07T05:20:59.695Z,77.62
2023-01-07T05:23:26.752Z,77.60
2023-01-07T05:25:53.846Z,77.96
2023-01-07T05:28:20.972Z,77.56
2023-01-07T05:30:48.143Z,77.61
2023-01-07T05:33:15.213Z,77.57
2023-01-07T05:35:42.303Z,77.52
2023-01-07T05:38:09.489Z,77.40
2023-01-07T05:40:36.545Z,77.32
2023-01-07T05:43:03.622Z,77.04
2023-01-07T05:45:30.659Z,77.26
2023-01-07T05:47:57.787Z,76.93
2023-01-07T05:50:25.424Z,77.11
2023-01-07T05:52:52.466Z,76.94
2023-01-07T05:55:19.495Z,76.75
2023-01-07T05:57:46.669Z,76.67
2023-01-07T06:00:14.515Z,76.92
2023-01-07T06:02:41.689Z,76.54
2023-01-07T06:05:09.068Z,76.54
2023-01-07T06:07:36.412Z,76.41
2023-01-07T06:10:04.132Z,76.67
2023-01-07T06:12:31.279Z,76.66
2023-01-07T06:14:58.577Z,76.28
2023-01-07T06:17:25.652Z,76.44
2023-01-07T06:19:52.821Z,76.15
2023-01-07T06:22:19.887Z,76.25
2023-01-07T06:24:46.922Z,75.93
2023-01-07T06:27:14.102Z,76.33
2023-01-07T06:29:41.388Z,76.21
2023-01-07T06:32:08.853Z,76.30
2023-01-07T06:34:35.963Z,76.17
2023-01-07T06:37:03.072Z,76.11
2023-01-07T06:39:30.241Z,76.53
2023-01-07T06:41:57.306Z,76.09
2023-01-07T06:44:24.399Z,75.89
2023-01-07T06:46:51.734Z,76.04
2023-01-07T06:49:18.757Z,75.80
2023-01-07T06:51:45.837Z,75.96
2023-01-07T06:54:12.899Z,76.01
2023-01-07T06:56:39.950Z,75.76
2023-01-07T06:59:06.976Z,75.60
2023-01-07T07:01:34.634Z,75.57
2023-01-07T07:04:01.777Z,75.58
2023-01-07T07:06:28.885Z,75.73
2023-01-07T07:08:56.048Z,75.76
2023-01-07T07:11:23.217Z,75.41
2023-01-07T07:13:50.281Z,75.37
2023-01-07T07:16:17.478Z,75.39
2023-01-07T07:18:44.611Z,74.90
2023-01-07T07:21:11.658Z,75.21
2023-01-07T07:23:38.730Z,75.24
2023-01-07T07:26:05.804Z,75.58
2023-01-07T07:28:32.896Z,75.13
2023-01-07T07:30:59.976Z,75.20
2023-01-07T07:33:27.044Z,75.04
2023-01-07T07:35:55.184Z,75.09
2023-01-07T07:38:22.646Z,75.14
2023-01-07T07:40:49.706Z,74.75
2023-01-07T07:43:16.732Z,74.89
2023-01-07T07:45:44.038Z,75.00
2023-01-07T07:48:13.214Z,75.03
2023-01-07T07:50:40.264Z,74.70
2023-01-07T07:53:10.041Z,74.77
2023-01-07T07:55:41.070Z,74.85
2023-01-07T07:58:08.334Z,74.73
2023-01-07T08:00:35.636Z,74.78
2023-01-07T08:03:02.799Z,74.36
2023-01-07T08:05:31.200Z,74.47
2023-01-07T08:07:58.393Z,74.45
2023-01-07T08:10:29.108Z,74.71
2023-01-07T08:12:56.212Z,74.73
2023-01-07T08:15:23.276Z,74.40
2023-01-07T08:17:57.628Z,74.12
2023-01-07T08:20:24.681Z,74.04
2023-01-07T08:22:51.830Z,74.34
2023-01-07T08:25:19.329Z,74.30
2023-01-07T08:27:46.393Z,73.87
2023-01-07T08:30:13.552Z,73.57
2023-01-07T08:32:40.595Z,73.78
2023-01-07T08:35:07.954Z,73.43
2023-01-07T08:37:35.066Z,73.58
2023-01-07T08:40:05.750Z,73.38
2023-01-07T08:42:32.988Z,73.52
2023-01-07T08:45:00.056Z,73.19
2023-01-07T08:47:30.577Z,73.47
2023-01-07T08:49:57.633Z,73.07
2023-01-07T08:52:25.392Z,73.35
2023-01-07T08:54:52.555Z,73.47
2023-01-07T08:57:19.671Z,73.02
2023-01-07T08:59:46.849Z,72.64
2023-01-07T09:02:18.792Z,72.91
2023-01-07T09:04:46.206Z,72.77
2023-01-07T09:07:13.330Z,73.08
2023-01-07T09:09:41.293Z,72.80
2023-01-07T09:12:10.811Z,72.61
2023-01-07T09:14:38.139Z,72.60
2023-01-07T09:17:05.188Z,72.47
2023-01-07T09:19:32.254Z,72.38
2023-01-07T09:21:59.292Z,71.92
2023-01-07T09:24:26.552Z,71.53
2023-01-07T09:26:53.657Z,71.31
2023-01-07T09:29:20.688Z,71.45
2023-01-07T09:31:47.745Z,71.13
2023-01-07T09:34:14.830Z,71.23
2023-01-07T09:36:42.000Z,71.01
2023-01-07T09:39:11.079Z,70.88
2023-01-07T09:41:51.114Z,69.86
2023-01-07T09:44:54.738Z,70.67
2023-01-07T09:47:24.829Z,70.36
2023-01-07T09:49:57.400Z,69.69
2023-01-07T09:52:28.029Z,69.56
2023-01-07T09:55:01.934Z,69.59
2023-01-07T09:57:29.062Z,69.45
2023-01-07T09:59:56.622Z,69.64
2023-01-07T10:02:51.761Z,69.27
2023-01-07T10:05:37.935Z,69.15
2023-01-07T10:08:39.847Z,69.30
2023-01-07T10:11:28.852Z,68.62
2023-01-07T10:14:05.776Z,68.66
2023-01-07T10:16:41.015Z,68.70
2023-01-07T10:19:10.418Z,68.62
2023-01-07T10:21:44.838Z,68.63
2023-01-07T10:24:21.602Z,68.55
2023-01-07T10:26:51.571Z,68.31
2023-01-07T10:29:49.032Z,68.03
2023-01-07T10:32:18.546Z,67.97
2023-01-07T10:34:47.715Z,67.54
2023-01-07T10:37:34.147Z,67.16
2023-01-07T10:40:22.955Z,67.20
2023-01-07T10:42:55.510Z,66.92
2023-01-07T10:45:52.912Z,66.98
2023-01-07T10:48:33.125Z,67.27
2023-01-07T10:51:13.387Z,66.71
2023-01-07T10:53:54.328Z,66.90
2023-01-07T10:56:37.836Z,67.06
2023-01-07T10:59:05.293Z,66.94
2023-01-07T11:01:35.657Z,67.33
2023-01-07T11:04:15.301Z,67.31
2023-01-07T11:06:52.539Z,66.84
2023-01-07T11:09:23.521Z,66.29
2023-01-07T11:11:50.785Z,66.38
2023-01-07T11:14:29.231Z,66.34
2023-01-07T11:17:39.148Z,66.25
2023-01-07T11:20:07.095Z,65.71
2023-01-07T11:22:36.818Z,66.12
2023-01-07T11:25:29.542Z,65.80
2023-01-07T11:28:00.928Z,65.67
2023-01-07T11:30:30.886Z,66.09
2023-01-07T11:33:05.384Z,66.18
2023-01-07T11:35:32.507Z,65.80
2023-01-07T11:38:00.154Z,66.24
2023-01-07T11:40:32.474Z,65.03
2023-01-07T11:43:05.912Z,64.91
2023-01-07T11:46:19.840Z,65.01
2023-01-07T11:48:42.746Z,65.04
2023-01-07T11:51:10.935Z,65.20
2023-01-07T11:53:39.087Z,64.74
2023-01-07T11:56:21.293Z,65.06
2023-01-07T11:59:00.333Z,64.83
2023-01-07T12:01:27.454Z,64.96
2023-01-07T12:03:54.590Z,64.93
2023-01-07T12:06:31.709Z,64.23
2023-01-07T12:09:07.657Z,63.86
2023-01-07T12:11:36.462Z,63.93
2023-01-07T12:14:09.679Z,63.40
2023-01-07T12:16:36.759Z,63.82
2023-01-07T12:19:34.600Z,64.04
2023-01-07T12:22:30.025Z,63.74
2023-01-07T12:25:22.600Z,63.33
2023-01-07T12:28:12.917Z,63.67
2023-01-07T12:30:56.296Z,63.58
2023-01-07T12:33:26.193Z,63.56
2023-01-07T12:35:56.578Z,63.70
2023-01-07T12:38:40.502Z,63.56
2023-01-07T12:41:20.824Z,63.51
2023-01-07T12:44:01.046Z,63.53
2023-01-07T12:46:32.475Z,63.67
2023-01-07T12:49:07.810Z,63.47
2023-01-07T12:52:05.507Z,63.85
2023-01-07T12:54:43.003Z,63.52
2023-01-07T12:57:21.855Z,63.72
2023-01-07T13:00:13.748Z,63.60
2023-01-07T13:02:48.807Z,63.90
2023-01-07T13:05:20.472Z,63.92
2023-01-07T13:07:54.863Z,64.20
2023-01-07T13:10:25.829Z,63.98
2023-01-07T13:12:57.454Z,64.23
2023-01-07T13:15:27.190Z,64.09
2023-01-07T13:17:58.872Z,64.40
2023-01-07T13:20:38.152Z,64.42
2023-01-07T13:23:05.840Z,63.52
2023-01-07T13:26:03.300Z,63.39
2023-01-07T13:28:39.863Z,63.97
2023-01-07T13:31:35.826Z,63.81
2023-01-07T13:34:20.626Z,64.08
2023-01-07T13:37:09.054Z,63.57
2023-01-07T13:40:07.725Z,63.71
2023-01-07T13:42:45.313Z,63.43
2023-01-07T13:45:15.458Z,63.45
2023-01-07T13:47:54.034Z,63.05
2023-01-07T13:50:25.155Z,63.43
2023-01-07T13:53:04.040Z,63.20
2023-01-07T13:55:40.487Z,63.37
2023-01-07T13:58:29.128Z,63.30
2023-01-07T14:01:04.508Z,63.05
2023-01-07T14:03:53.407Z,63.46
2023-01-07T14:06:20.565Z,63.47
2023-01-07T14:08:56.779Z,63.57
2023-01-07T14:11:29.828Z,63.75
2023-01-07T14:14:29.791Z,63.40
2023-01-07T14:17:12.695Z,63.48
2023-01-07T14:20:02.022Z,62.96
2023-01-07T14:22:52.275Z,63.27
2023-01-07T14:25:33.411Z,63.03
2023-01-07T14:28:13.319Z,63.18
2023-01-07T14:30:46.112Z,63.15
2023-01-07T14:33:24.227Z,62.95
2023-01-07T14:35:59.311Z,62.87
2023-01-07T14:38:29.326Z,62.96
2023-01-07T14:41:17.810Z,63.18
2023-01-07T14:43:46.854Z,63.21
2023-01-07T14:46:22.879Z,63.28
2023-01-07T14:49:02.243Z,63.32
2023-01-07T14:51:49.854Z,63.63
2023-01-07T14:54:54.154Z,63.37
2023-01-07T14:58:06.307Z,63.32
2023-01-07T15:00:58.109Z,63.46
2023-01-07T15:03:27.510Z,63.62
2023-01-07T15:06:08.710Z,63.61
2023-01-07T15:09:08.630Z,63.56
2023-01-07T15:11:55.367Z,63.96
2023-01-07T15:14:53.854Z,63.76
2023-01-07T15:17:21.107Z,63.96
2023-01-07T15:19:48.263Z,63.32
2023-01-07T15:22:46.239Z,63.46
2023-01-07T15:25:28.404Z,63.13
2023-01-07T15:28:11.733Z,63.60
2023-01-07T15:30:51.855Z,63.75
2023-01-07T15:33:24.615Z,63.82
2023-01-07T15:35:51.943Z,63.95
2023-01-07T15:38:31.592Z,63.81
2023-01-07T15:41:00.005Z,63.70
2023-01-07T15:43:29.132Z,63.40
2023-01-07T15:46:01.295Z,63.50
2023-01-07T15:48:28.351Z,63.86
2023-01-07T15:50:55.515Z,63.55
2023-01-07T15:53:24.913Z,63.97
2023-01-07T15:55:56.070Z,63.94
2023-01-07T15:58:32.320Z,64.24
2023-01-07T16:01:01.052Z,64.55
2023-01-07T16:03:28.936Z,64.66
2023-01-07T16:05:56.648Z,65.08
2023-01-07T16:08:30.076Z,64.80
2023-01-07T16:11:05.916Z,65.04
2023-01-07T16:13:36.922Z,65.13
2023-01-07T16:16:06.508Z,65.02
2023-01-07T16:18:33.683Z,64.97
2023-01-07T16:21:06.495Z,65.10
2023-01-07T16:23:37.489Z,65.52
2023-01-07T16:26:05.175Z,65.80
2023-01-07T16:28:39.487Z,66.08
2023-01-07T16:31:09.479Z,66.43
2023-01-07T16:33:37.787Z,66.62
2023-01-07T16:36:22.751Z,66.77
2023-01-07T16:38:51.986Z,67.23
2023-01-07T16:41:21.423Z,67.17
2023-01-07T16:43:49.079Z,67.17
2023-01-07T16:46:28.934Z,67.56
2023-01-07T16:49:11.135Z,67.33
2023-01-07T16:51:46.739Z,67.87
2023-01-07T16:54:25.803Z,67.40
2023-01-07T16:56:54.455Z,67.48
2023-01-07T16:59:23.991Z,67.81
2023-01-07T17:01:51.201Z,67.96
2023-01-07T17:04:23.817Z,68.52
2023-01-07T17:06:51.003Z,68.16
2023-01-07T17:09:21.758Z,68.75
2023-01-07T17:11:50.306Z,69.00
2023-01-07T17:14:32.710Z,69.17
2023-01-07T17:17:04.116Z,69.78
2023-01-07T17:19:37.168Z,69.60
2023-01-07T17:22:04.783Z,69.82
2023-01-07T17:24:31.734Z,69.57
2023-01-07T17:27:01.024Z,70.18
2023-01-07T17:29:33.941Z,70.88
2023-01-07T17:32:01.061Z,70.90
2023-01-07T17:34:28.179Z,71.41
2023-01-07T17:36:55.226Z,71.66
2023-01-07T17:39:22.283Z,71.80
2023-01-07T17:42:07.899Z,71.46
2023-01-07T17:44:34.941Z,72.39
2023-01-07T17:47:02.668Z,72.21
2023-01-07T17:49:29.817Z,71.94
2023-01-07T17:51:56.907Z,72.59
2023-01-07T17:54:25.204Z,72.48
2023-01-07T17:56:52.691Z,72.31
2023-01-07T17:59:22.189Z,72.30
2023-01-07T18:01:50.963Z,72.10
2023-01-07T18:04:18.221Z,72.10
2023-01-07T18:06:45.598Z,71.77
2023-01-07T18:09:13.674Z,72.43
2023-01-07T18:12:02.442Z,72.80
2023-01-07T18:14:29.674Z,73.23
2023-01-07T18:16:56.870Z,73.18
2023-01-07T18:19:23.979Z,72.98
2023-01-07T18:21:51.055Z,72.75
2023-01-07T18:24:20.406Z,73.04
2023-01-07T18:26:47.843Z,72.62
2023-01-07T18:29:16.351Z,72.46
2023-01-07T18:31:44.400Z,71.63
2023-01-07T18:34:12.630Z,71.81
2023-01-07T18:36:39.938Z,71.34
2023-01-07T18:39:09.910Z,71.24
2023-01-07T18:41:39.303Z,71.14
2023-01-07T18:44:06.709Z,71.39
2023-01-07T18:46:34.023Z,71.13
2023-01-07T18:49:01.120Z,71.09
2023-01-07T18:51:28.170Z,70.82
2023-01-07T18:53:55.253Z,70.64
2023-01-07T18:56:22.535Z,70.18
2023-01-07T18:58:53.339Z,70.03
2023-01-07T19:01:21.070Z,70.01
2023-01-07T19:03:48.337Z,69.84
2023-01-07T19:06:15.961Z,70.14
2023-01-07T19:08:43.063Z,70.30
2023-01-07T19:11:14.259Z,70.14
2023-01-07T19:13:41.912Z,70.29
2023-01-07T19:16:11.343Z,70.29
2023-01-07T19:18:38.688Z,70.17
2023-01-07T19:21:07.607Z,70.00
2023-01-07T19:23:34.688Z,70.24
2023-01-07T19:26:03.841Z,70.32
2023-01-07T19:28:32.669Z,70.40
2023-01-07T19:30:59.812Z,70.21
2023-01-07T19:33:26.887Z,70.37
2023-01-07T19:36:15.838Z,71.15
2023-01-07T19:38:46.289Z,71.03
2023-01-07T19:41:16.553Z,70.89
2023-01-07T19:43:45.737Z,71.13
2023-01-07T19:46:14.613Z,71.04
2023-01-07T19:48:42.692Z,71.38
2023-01-07T19:51:10.663Z,71.87
2023-01-07T19:53:37.827Z,71.54
2023-01-07T19:56:11.271Z,71.30
2023-01-07T19:58:40.641Z,71.95
2023-01-07T20:01:11.819Z,72.28
2023-01-07T20:03:39.081Z,71.81
2023-01-07T20:06:13.253Z,72.40
2023-01-07T20:08:40.571Z,72.21
2023-01-07T20:11:08.377Z,72.49
2023-01-07T20:13:37.244Z,72.37
2023-01-07T20:16:09.483Z,71.98
2023-01-07T20:18:41.900Z,72.71
2023-01-07T20:21:10.812Z,72.29
2023-01-07T20:23:38.841Z,72.25
2023-01-07T20:26:08.947Z,72.46
2023-01-07T20:28:36.006Z,72.98
2023-01-07T20:31:04.750Z,73.01
2023-01-07T20:33:31.792Z,72.31
2023-01-07T20:36:00.709Z,72.60
2023-01-07T20:38:27.921Z,72.39
2023-01-07T20:40:54.997Z,72.68
2023-01-07T20:43:22.068Z,72.64
2023-01-07T20:45:49.222Z,72.60
2023-01-07T20:48:16.595Z,72.52
2023-01-07T20:50:43.629Z,72.52
2023-01-07T20:53:11.446Z,72.86
2023-01-07T20:55:38.526Z,72.25
2023-01-07T20:58:05.642Z,72.48
2023-01-07T21:00:32.840Z,72.24
2023-01-07T21:02:59.959Z,72.33
2023-01-07T21:05:27.038Z,71.82
2023-01-07T21:07:54.143Z,72.06
2023-01-07T21:10:21.386Z,72.49
2023-01-07T21:12:48.430Z,72.14
2023-01-07T21:15:16.168Z,72.58
2023-01-07T21:17:43.466Z,72.88
2023-01-07T21:20:13.480Z,73.14
2023-01-07T21:22:41.002Z,72.42
2023-01-07T21:25:11.118Z,73.52
2023-01-07T21:27:38.438Z,73.76
2023-01-07T21:30:14.446Z,73.41
2023-01-07T21:32:41.619Z,73.78
2023-01-07T21:35:10.167Z,74.24
2023-01-07T21:37:37.823Z,74.49
2023-01-07T21:40:06.114Z,74.59
2023-01-07T21:42:35.420Z,74.84
2023-01-07T21:45:03.562Z,74.70
2023-01-07T21:47:30.626Z,74.63
2023-01-07T21:49:57.751Z,74.82
2023-01-07T21:52:25.016Z,75.20
2023-01-07T21:54:52.065Z,74.78
2023-01-07T21:57:19.343Z,75.37
2023-01-07T21:59:46.480Z,75.34
2023-01-07T22:02:13.797Z,75.41
2023-01-07T22:04:40.993Z,75.55
2023-01-07T22:07:13.210Z,75.53
2023-01-07T22:09:40.395Z,75.75
2023-01-07T22:12:08.452Z,75.66
2023-01-07T22:14:35.522Z,75.55
2023-01-07T22:17:02.761Z,75.53
2023-01-07T22:19:29.855Z,76.04
2023-01-07T22:21:57.091Z,75.46
2023-01-07T22:24:24.142Z,75.48
2023-01-07T22:26:51.241Z,75.93
2023-01-07T22:29:18.577Z,76.03
2023-01-07T22:31:49.072Z,75.89
2023-01-07T22:34:16.159Z,76.33
2023-01-07T22:36:59.830Z,76.01
2023-01-07T22:39:31.116Z,76.75
2023-01-07T22:42:02.453Z,76.96
2023-01-07T22:44:36.601Z,76.87
2023-01-07T22:47:04.263Z,77.22
2023-01-07T22:49:32.689Z,77.39
2023-01-07T22:51:59.797Z,77.21
2023-01-07T22:54:27.174Z,77.60
2023-01-07T22:56:54.487Z,77.12
2023-01-07T22:59:21.563Z,77.12
2023-01-07T23:01:48.622Z,77.31
2023-01-07T23:04:15.750Z,77.02
2023-01-07T23:06:42.814Z,77.82
2023-01-07T23:09:09.921Z,77.98
2023-01-07T23:11:48.998Z,77.66
2023-01-07T23:14:23.262Z,78.01
2023-01-07T23:16:51.501Z,77.22
2023-01-07T23:19:19.435Z,76.96
2023-01-07T23:21:48.074Z,77.90
2023-01-07T23:24:15.259Z,77.86
2023-01-07T23:26:42.796Z,77.89
2023-01-07T23:29:09.943Z,77.54
2023-01-07T23:31:37.430Z,77.75
2023-01-07T23:34:05.263Z,77.41
2023-01-07T23:36:32.910Z,77.22
2023-01-07T23:39:00.026Z,77.95
2023-01-07T23:41:27.087Z,78.37
2023-01-07T23:43:54.287Z,78.43
2023-01-07T23:46:21.416Z,78.07
2023-01-07T23:48:48.607Z,78.05
2023-01-07T23:51:18.942Z,78.79
2023-01-07T23:53:46.228Z,78.63
2023-01-07T23:56:14.299Z,78.65
2023-01-07T23:58:41.398Z,78.42
